Time;durP1;ratioP1;P1;durP2;ratioP2;P2;SDS_P1;SDS_P2;PMS_P1;PMS_P2;Temp;Humidity;BMP_temperature;BMP_pressure;BME280_temperature;BME280_humidity;BME280_pressure;Samples;Min_cycle;Max_cycle;Signal;HPM_P1;HPM_P2
2023/03/03 00:00:36;;;;;;;24.88;18.00;;;7.10;99.90;;;7.17;80.10;102387.75;5032485;28;20041;-70
2023/03/03 00:03:08;;;;;;;28.80;18.27;;;7.00;99.90;;;7.14;80.10;102389.38;5032711;28;20555;-70
2023/03/03 00:05:37;;;;;;;25.77;17.08;;;6.90;99.90;;;7.07;80.57;102396.16;5031416;28;20455;-69
2023/03/03 00:08:05;;;;;;;26.50;18.88;;;6.90;99.90;;;7.12;80.55;102380.53;5032441;28;20612;-69
2023/03/03 00:10:34;;;;;;;26.38;17.95;;;6.90;99.90;;;7.14;80.45;102386.75;5030930;28;20456;-69
2023/03/03 00:13:03;;;;;;;28.98;17.65;;;6.90;99.90;;;7.04;80.90;102387.28;5032406;28;20125;-69
2023/03/03 00:15:32;;;;;;;27.05;19.27;;;6.80;99.90;;;7.06;80.84;102382.97;5032426;28;20051;-70
2023/03/03 00:18:02;;;;;;;24.67;18.05;;;6.90;99.90;;;7.10;80.54;102390.97;5032737;28;20042;-69
2023/03/03 00:20:37;;;;;;;25.35;18.23;;;6.90;99.90;;;7.16;80.37;102395.59;5033156;28;20038;-69
2023/03/03 00:23:20;;;;;;;26.10;17.65;;;6.90;99.90;;;7.20;80.29;102400.13;5032571;28;20128;-69
2023/03/03 00:25:51;;;;;;;28.35;18.50;;;7.00;99.90;;;7.22;80.20;102394.03;5032546;28;20050;-69
2023/03/03 00:28:32;;;;;;;28.45;19.67;;;7.00;99.90;;;7.22;80.17;102393.13;5032623;28;20060;-69
2023/03/03 00:31:02;;;;;;;26.08;17.50;;;7.00;99.90;;;7.03;80.35;102361.78;5031230;28;20060;-69
2023/03/03 00:33:34;;;;;;;;;;;7.00;99.90;;;7.24;80.04;102388.81;5031459;28;20054;-69
2023/03/03 00:36:30;;;;;;;27.05;18.70;;;7.00;99.90;;;7.04;80.30;102360.97;5032398;28;19928;-69
2023/03/03 00:39:26;;;;;;;27.50;17.58;;;7.00;99.90;;;7.19;80.26;102390.41;5032432;28;20046;-69
2023/03/03 00:41:56;;;;;;;28.08;17.75;;;7.00;99.90;;;7.06;80.34;102375.06;5032152;28;20087;-69
2023/03/03 00:44:41;;;;;;;33.23;18.23;;;7.00;99.90;;;7.08;80.55;102378.66;5032323;28;20041;-70
2023/03/03 00:47:27;;;;;;;26.80;18.17;;;7.00;99.90;;;7.17;80.63;102393.00;5031093;28;20049;-69
2023/03/03 00:50:32;;;;;;;35.45;18.70;;;7.00;99.90;;;7.19;80.75;102390.41;5031050;28;20156;-70
2023/03/03 00:53:11;;;;;;;27.15;17.83;;;7.00;99.90;;;7.16;81.00;102391.19;4990464;28;20138;-69
2023/03/03 00:55:40;;;;;;;26.25;17.45;;;7.00;99.90;;;7.11;81.39;102386.63;5026777;28;20049;-70
2023/03/03 00:58:09;;;;;;;26.23;18.00;;;6.90;99.90;;;7.14;81.24;102386.75;5032183;28;20392;-69
2023/03/03 01:00:43;;;;;;;26.50;17.80;;;6.90;99.90;;;7.14;81.02;102392.00;5032489;28;20404;-69
2023/03/03 01:03:16;;;;;;;25.92;16.85;;;7.00;99.90;;;7.15;81.25;102388.53;5030828;28;20053;-70
2023/03/03 01:05:46;;;;;;;22.73;16.05;;;6.90;99.90;;;7.04;81.02;102367.13;5030836;28;20136;-69
2023/03/03 01:08:15;;;;;;;22.15;15.13;;;7.00;99.90;;;6.48;81.23;102274.00;5032145;28;20116;-69
2023/03/03 01:10:49;;;;;;;23.65;15.75;;;7.00;99.90;;;7.03;80.93;102357.44;5032139;28;20122;-70
2023/03/03 01:13:19;;;;;;;21.55;15.70;;;7.00;99.90;;;7.10;81.19;102379.59;5032042;28;20403;-70
2023/03/03 01:15:48;;;;;;;23.10;15.18;;;7.00;99.90;;;7.16;81.19;102395.59;5032044;28;20075;-70
2023/03/03 01:18:16;;;;;;;22.27;14.77;;;7.00;99.90;;;7.09;81.13;102401.47;5030688;28;20136;-70
2023/03/03 01:20:47;;;;;;;20.45;15.32;;;6.90;99.90;;;6.89;81.52;102365.72;5033846;28;20065;-70
2023/03/03 01:23:15;;;;;;;20.70;14.15;;;6.90;99.90;;;7.03;81.28;102396.00;5035920;28;20479;-69
2023/03/03 01:25:44;;;;;;;21.98;14.18;;;6.90;99.90;;;7.12;81.24;102391.06;5034549;28;20417;-69
2023/03/03 01:28:12;;;;;;;18.50;13.63;;;6.90;99.90;;;6.96;81.42;102391.38;5034563;28;20493;-70
2023/03/03 01:30:41;;;;;;;18.70;12.73;;;6.80;99.90;;;7.02;81.28;102399.47;5034441;28;20143;-69
2023/03/03 01:33:09;;;;;;;19.10;11.93;;;6.90;99.90;;;7.07;81.59;102400.50;5034531;28;20420;-69
2023/03/03 01:35:40;;;;;;;23.52;13.25;;;6.90;99.90;;;7.07;81.15;102400.50;5034415;28;20065;-70
2023/03/03 01:38:09;;;;;;;17.83;12.55;;;6.90;99.90;;;7.07;81.24;102397.88;5035704;28;20511;-70
2023/03/03 01:40:38;;;;;;;15.27;11.73;;;6.90;99.90;;;7.08;81.32;102397.06;5036206;28;20452;-70
2023/03/03 01:43:07;;;;;;;17.98;12.93;;;6.90;99.90;;;7.13;81.19;102395.47;5034175;28;20328;-68
2023/03/03 01:46:22;;;;;;;15.68;11.50;;;6.90;99.90;;;7.06;80.72;102402.28;5034164;28;20543;-70
2023/03/03 01:48:56;;;;;;;15.60;11.10;;;6.90;99.90;;;7.01;80.62;102395.03;5025636;28;20049;-70
2023/03/03 01:51:29;;;;;;;16.23;11.48;;;6.90;99.90;;;7.07;80.81;102400.50;5035376;28;20045;-69
2023/03/03 01:54:03;;;;;;;16.50;11.48;;;6.80;99.90;;;7.11;80.69;102394.50;5035435;28;20049;-70
2023/03/03 01:56:32;;;;;;;16.58;11.38;;;7.00;99.90;;;6.98;80.74;102400.22;5035094;28;20065;-69
2023/03/03 01:59:06;;;;;;;19.52;11.40;;;6.90;99.90;;;7.13;80.41;102403.34;5033917;28;20510;-69
2023/03/03 02:01:34;;;;;;;14.25;10.70;;;6.90;99.90;;;7.18;80.44;102393.91;5035585;28;20047;-69
2023/03/03 02:04:03;;;;;;;14.02;10.63;;;7.00;99.90;;;7.18;80.34;102409.69;5035229;28;20451;-71
2023/03/03 02:06:37;;;;;;;15.57;11.15;;;7.00;99.90;;;7.18;80.19;102399.16;5033817;28;20556;-69
2023/03/03 02:09:15;;;;;;;16.90;11.43;;;7.00;99.90;;;7.17;80.06;102400.00;5034053;28;20045;-70
2023/03/03 02:11:47;;;;;;;15.60;10.05;;;7.00;99.90;;;7.16;80.02;102395.59;5035029;28;20049;-70
2023/03/03 02:14:15;;;;;;;13.60;10.23;;;7.00;99.90;;;7.29;79.60;102395.16;5035203;28;20069;-69
2023/03/03 02:16:44;;;;;;;12.43;10.32;;;7.00;99.90;;;7.17;79.43;102392.09;5034734;28;20049;-69
2023/03/03 02:19:22;;;;;;;14.50;10.20;;;7.00;99.90;;;7.10;79.94;102387.47;5034949;28;20041;-70
2023/03/03 02:21:50;;;;;;;14.02;9.65;;;6.90;99.90;;;7.12;79.71;102388.44;5035333;28;20037;-70
2023/03/03 02:24:26;;;;;;;13.23;10.05;;;6.90;99.90;;;7.08;79.82;102386.53;5033440;28;20132;-69
2023/03/03 02:26:56;;;;;;;16.63;11.75;;;6.90;99.90;;;7.07;80.17;102390.00;5033584;28;20061;-69
2023/03/03 02:29:25;;;;;;;16.50;10.18;;;6.80;99.90;;;7.12;79.76;102394.56;5034806;28;20478;-70
2023/03/03 02:31:53;;;;;;;15.48;10.93;;;6.90;99.90;;;6.98;80.25;102385.31;5032130;28;20045;-69
2023/03/03 02:34:22;;;;;;;15.80;9.82;;;6.90;99.90;;;6.99;80.21;102389.72;5033116;28;20449;-70
2023/03/03 02:36:52;;;;;;;14.05;11.35;;;6.80;99.90;;;7.08;80.04;102392.66;5033253;28;20144;-69
2023/03/03 02:39:26;;;;;;;13.45;10.88;;;6.90;99.90;;;6.91;79.70;102361.41;5033001;28;20104;-70
2023/03/03 02:42:00;;;;;;;13.32;10.57;;;6.90;99.90;;;7.06;79.95;102389.13;5033190;28;20426;-70
2023/03/03 02:44:36;;;;;;;14.52;9.88;;;6.90;99.90;;;7.04;79.97;102390.81;5033051;28;20069;-70
2023/03/03 02:47:05;;;;;;;14.07;10.95;;;6.80;99.90;;;7.03;80.19;102390.72;5033007;28;20489;-69
2023/03/03 02:49:36;;;;;;;11.98;9.50;;;6.80;99.90;;;6.22;80.04;102252.97;5033045;28;20041;-69
2023/03/03 02:52:08;;;;;;;14.23;10.23;;;6.80;99.90;;;7.05;80.39;102391.69;5032951;28;20041;-69
2023/03/03 02:54:39;;;;;;;14.73;11.90;;;6.80;99.90;;;6.73;80.14;102334.47;5032586;28;20049;-69
2023/03/03 02:57:09;;;;;;;13.48;11.00;;;6.80;99.90;;;7.00;80.55;102380.13;5032941;28;20059;-70
2023/03/03 02:59:38;;;;;;;15.40;10.75;;;6.70;99.90;;;6.97;80.55;102373.00;5032809;28;20056;-69
2023/03/03 03:02:12;;;;;;;16.30;10.95;;;6.80;99.90;;;7.03;80.27;102378.47;5032812;28;20440;-70
2023/03/03 03:04:41;;;;;;;14.20;10.35;;;6.80;99.90;;;6.98;80.67;102385.31;5033957;28;20049;-70
2023/03/03 03:07:12;;;;;;;14.70;10.05;;;6.80;99.90;;;7.02;80.43;102392.50;5034277;28;20459;-70
2023/03/03 03:09:42;;;;;;;14.20;9.88;;;6.80;99.90;;;7.05;80.46;102386.41;5032581;28;20076;-70
2023/03/03 03:12:12;;;;;;;13.50;10.10;;;6.80;99.90;;;7.05;80.91;102386.41;5049180;28;20469;-70
2023/03/03 03:14:40;;;;;;;11.45;10.25;;;6.80;99.90;;;6.98;80.47;102384.44;5033858;28;20073;-70
2023/03/03 03:17:10;;;;;;;15.90;11.23;;;6.80;99.90;;;6.95;80.89;102390.47;5033787;28;20041;-70
2023/03/03 03:19:39;;;;;;;14.57;10.65;;;6.80;99.90;;;6.94;80.87;102393.06;5032502;28;20095;-70
2023/03/03 03:22:08;;;;;;;13.50;10.43;;;6.70;99.90;;;7.00;80.90;102394.16;5032394;28;20049;-69
2023/03/03 03:24:36;;;;;;;14.85;10.27;;;6.80;99.90;;;6.96;81.02;102388.75;5032266;28;20053;-70
2023/03/03 03:27:08;;;;;;;14.65;10.20;;;6.80;99.90;;;6.93;81.06;102384.25;5031942;28;20434;-69
2023/03/03 03:29:38;;;;;;;15.52;10.57;;;6.80;99.90;;;6.93;81.21;102392.16;5032237;28;20073;-70
2023/03/03 03:32:08;;;;;;;13.18;10.52;;;6.80;99.90;;;6.89;80.93;102399.91;5032238;28;20436;-70
2023/03/03 03:34:37;;;;;;;14.65;10.57;;;6.70;99.90;;;6.86;81.33;102389.25;5031828;28;20053;-70
2023/03/03 03:37:08;;;;;;;14.15;10.25;;;6.70;99.90;;;6.91;81.10;102392.97;5032076;28;20091;-70
2023/03/03 03:39:37;;;;;;;14.65;10.38;;;6.70;99.90;;;6.94;81.04;102395.69;5032058;28;20041;-70
2023/03/03 03:42:06;;;;;;;13.48;10.65;;;6.80;99.90;;;6.98;81.05;102397.59;5032006;28;20051;-70
2023/03/03 03:44:35;;;;;;;14.23;10.57;;;6.80;99.90;;;6.93;80.65;102397.41;5032894;28;20050;-70
2023/03/03 03:47:06;;;;;;;17.67;10.20;;;6.80;99.90;;;6.87;81.19;102401.59;5031960;28;20124;-69
2023/03/03 03:49:34;;;;;;;16.38;10.60;;;6.70;99.90;;;6.83;81.29;102399.69;5031891;28;20042;-69
2023/03/03 03:52:04;;;;;;;12.80;10.27;;;6.60;99.90;;;6.79;81.36;102400.41;5031796;28;20046;-70
2023/03/03 03:54:34;;;;;;;17.27;10.45;;;6.60;99.90;;;6.79;81.24;102403.94;5031715;28;20453;-69
2023/03/03 03:57:03;;;;;;;16.20;10.45;;;6.60;99.90;;;6.85;81.13;102400.63;5031627;28;20099;-70
2023/03/03 03:59:32;;;;;;;15.95;10.20;;;6.70;99.90;;;6.83;81.21;102412.84;5031647;28;20038;-69
2023/03/03 04:02:00;;;;;;;11.68;9.77;;;6.60;99.90;;;6.79;81.42;102408.31;5031859;28;20045;-70
2023/03/03 04:04:30;;;;;;;13.38;9.73;;;6.60;99.90;;;6.77;81.25;102409.97;5031577;28;20076;-70
2023/03/03 04:06:59;;;;;;;16.02;11.23;;;6.60;99.90;;;6.79;81.31;102408.31;5032860;28;20060;-70
2023/03/03 04:09:28;;;;;;;12.40;10.18;;;6.60;99.90;;;6.74;81.23;102413.38;5032999;28;20045;-69
2023/03/03 04:11:56;;;;;;;17.10;11.32;;;6.50;99.90;;;6.70;81.38;102418.47;5031638;28;20083;-69
2023/03/03 04:14:25;;;;;;;16.88;12.60;;;6.50;99.90;;;6.70;81.10;102413.22;5031588;28;20038;-69
2023/03/03 04:16:54;;;;;;;18.77;10.98;;;6.50;99.90;;;6.70;81.23;102413.22;5031114;28;20081;-69
2023/03/03 04:19:23;;;;;;;14.80;10.70;;;6.50;99.90;;;6.63;81.16;102406.84;5031313;28;20052;-69
2023/03/03 04:21:53;;;;;;;17.15;12.35;;;6.50;99.90;;;5.92;81.86;102405.91;5031225;28;20050;-70
2023/03/03 04:24:22;;;;;;;20.50;13.77;;;6.10;99.90;;;5.75;82.76;102409.56;5030836;28;20057;-69
2023/03/03 04:26:53;;;;;;;20.73;14.35;;;5.70;99.90;;;5.93;83.28;102407.66;5031177;28;20045;-70
2023/03/03 04:29:21;;;;;;;21.20;15.87;;;5.70;99.90;;;5.93;83.18;102413.81;5030804;28;20046;-69
2023/03/03 04:31:50;;;;;;;23.10;15.37;;;5.70;99.90;;;5.93;83.02;102408.56;5031712;28;20385;-69
2023/03/03 04:34:19;;;;;;;18.33;15.20;;;5.70;99.90;;;5.86;83.30;102421.41;5031498;28;20054;-69
2023/03/03 04:36:48;;;;;;;21.27;15.57;;;5.70;99.90;;;5.82;84.17;102423.00;5031557;28;20137;-69
2023/03/03 04:39:18;;;;;;;19.70;15.53;;;5.70;99.90;;;5.95;84.14;102422.66;5032528;28;20480;-69
2023/03/03 04:41:47;;;;;;;23.65;15.45;;;5.70;99.90;;;5.93;84.95;102413.81;5031792;28;20145;-69
2023/03/03 04:44:15;;;;;;;22.57;16.20;;;5.70;99.90;;;5.93;85.48;102413.81;5032643;28;20408;-70
2023/03/03 04:46:44;;;;;;;25.40;15.70;;;5.80;99.90;;;6.03;85.31;102417.69;5032746;28;20041;-69
2023/03/03 04:49:12;;;;;;;22.20;16.07;;;5.90;99.90;;;5.99;86.15;102418.41;5032947;28;20129;-70
2023/03/03 04:51:42;;;;;;;23.92;16.73;;;5.80;99.90;;;5.93;86.35;102421.69;5031368;28;20081;-70
2023/03/03 04:54:12;;;;;;;22.97;16.77;;;5.80;99.90;;;6.01;86.54;102422.91;5031298;28;20045;-69
2023/03/03 04:56:42;;;;;;;24.60;16.70;;;5.80;99.90;;;5.98;86.97;102422.75;5034701;28;20065;-69
2023/03/03 04:59:10;;;;;;;23.42;16.85;;;5.80;99.90;;;5.96;87.59;102431.44;5035441;28;20061;-69
2023/03/03 05:01:39;;;;;;;26.03;17.53;;;5.80;99.90;;;5.98;87.53;102425.38;5035391;28;20099;-69
2023/03/03 05:04:08;;;;;;;25.93;18.80;;;5.80;99.90;;;5.91;87.92;102433.88;5036641;28;20048;-70
2023/03/03 05:06:38;;;;;;;26.95;17.00;;;5.70;99.90;;;5.86;88.36;102432.81;5035323;28;20073;-69
2023/03/03 05:09:06;;;;;;;24.80;17.23;;;5.70;99.90;;;5.10;88.19;102283.59;5036783;28;20103;-70
2023/03/03 05:11:34;;;;;;;23.67;17.87;;;5.70;99.90;;;5.94;88.61;102435.75;5036494;28;20064;-69
2023/03/03 05:14:04;;;;;;;24.13;17.13;;;5.70;99.90;;;6.00;88.70;102436.84;5035217;28;20444;-69
2023/03/03 05:16:32;;;;;;;25.10;17.27;;;5.90;99.90;;;6.00;88.42;102435.97;5036396;28;20137;-70
2023/03/03 05:19:01;;;;;;;22.87;16.60;;;5.90;99.90;;;6.05;88.57;102440.56;5036357;28;20451;-70
2023/03/03 05:21:30;;;;;;;23.83;17.47;;;5.90;99.90;;;6.06;88.99;102437.09;5035033;28;20152;-69
2023/03/03 05:23:58;;;;;;;24.57;17.13;;;5.90;99.90;;;6.11;88.53;102432.94;5036002;28;20068;-69
2023/03/03 05:26:26;;;;;;;23.33;17.70;;;6.00;99.90;;;6.09;88.59;102428.44;5036240;28;20045;-70
2023/03/03 05:28:54;;;;;;;24.93;17.50;;;5.90;99.90;;;6.09;88.52;102431.97;5035960;28;20056;-70
2023/03/03 05:31:26;;;;;;;26.07;17.67;;;5.90;99.90;;;6.08;88.76;102435.41;5034863;28;20084;-69
2023/03/03 05:33:55;;;;;;;23.93;17.97;;;5.90;99.90;;;6.16;88.92;102433.09;5034867;28;20053;-69
2023/03/03 05:36:23;;;;;;;35.00;20.17;;;6.00;99.90;;;6.09;89.11;102421.47;5035912;28;20037;-70
2023/03/03 05:38:52;;;;;;;25.80;18.20;;;6.00;99.90;;;6.21;88.96;102421.03;5035959;28;20075;-69
2023/03/03 05:41:20;;;;;;;26.23;18.65;;;6.00;99.90;;;6.16;88.98;102428.75;5035646;28;20041;-69
2023/03/03 05:43:49;;;;;;;24.43;18.60;;;6.00;99.90;;;6.17;89.08;102430.56;5035521;28;20053;-69
2023/03/03 05:46:18;;;;;;;30.30;18.23;;;6.10;99.90;;;6.17;89.28;102430.56;5035785;28;20088;-70
2023/03/03 05:48:48;;;;;;;27.20;20.27;;;6.00;99.90;;;6.19;89.04;102433.22;5035446;28;20124;-69
2023/03/03 05:51:16;;;;;;;29.93;20.23;;;6.10;99.90;;;6.15;89.42;102419.09;5034509;28;20045;-69
2023/03/03 05:53:45;;;;;;;33.05;21.15;;;6.10;99.90;;;6.27;89.41;102432.66;5035716;28;20455;-70
2023/03/03 05:56:13;;;;;;;32.53;21.52;;;6.10;99.90;;;6.29;89.18;102436.25;5035654;28;20129;-70
2023/03/03 05:58:41;;;;;;;50.45;21.85;;;6.10;99.90;;;6.15;88.77;102439.19;5035613;28;20396;-69
2023/03/03 06:01:10;;;;;;;29.48;19.40;;;6.10;99.90;;;6.23;89.32;102433.38;5035242;28;20492;-70
2023/03/03 06:03:38;;;;;;;26.57;19.47;;;6.00;99.90;;;6.22;89.48;102439.50;5035600;28;20042;-70
2023/03/03 06:06:09;;;;;;;32.23;20.33;;;6.10;99.90;;;6.16;89.46;102436.63;5034045;28;20500;-70
2023/03/03 06:08:37;;;;;;;30.55;20.20;;;6.00;99.90;;;6.16;89.67;102435.72;5035241;28;20117;-70
2023/03/03 06:11:05;;;;;;;31.88;19.65;;;6.00;99.90;;;6.18;90.02;102437.56;5035096;28;20523;-70
2023/03/03 06:13:34;;;;;;;31.53;20.43;;;6.00;99.90;;;6.21;89.49;102442.94;5033719;28;20103;-70
2023/03/03 06:16:03;;;;;;;29.70;19.83;;;6.00;99.90;;;6.23;89.88;102441.25;5034925;28;20480;-71
2023/03/03 06:18:31;;;;;;;27.40;19.00;;;6.00;99.90;;;6.20;89.83;102446.41;5035228;28;20467;-70
2023/03/03 06:20:59;;;;;;;26.87;18.27;;;6.00;99.90;;;6.20;89.45;102445.50;5034978;28;20045;-70
2023/03/03 06:23:29;;;;;;;30.23;19.17;;;6.00;99.90;;;6.23;89.89;102449.13;5034916;28;20045;-70
2023/03/03 06:25:58;;;;;;;23.10;17.45;;;6.00;99.90;;;6.19;89.85;102451.63;5034867;28;20457;-70
2023/03/03 06:28:27;;;;;;;28.95;19.65;;;6.00;99.90;;;6.20;89.94;102456.91;5035035;28;20058;-70
2023/03/03 06:30:56;;;;;;;30.23;19.33;;;6.00;99.90;;;6.19;89.96;102451.63;5035097;28;20068;-70
2023/03/03 06:33:25;;;;;;;24.53;19.03;;;6.00;99.90;;;6.21;90.05;102456.06;5034763;28;20049;-70
2023/03/03 06:35:55;;;;;;;25.83;18.97;;;6.00;99.90;;;6.04;90.30;102423.00;5034613;28;20437;-70
2023/03/03 06:38:24;;;;;;;27.87;18.73;;;6.00;99.90;;;6.24;90.17;102463.19;5034614;28;20043;-70
2023/03/03 06:40:54;;;;;;;26.73;18.02;;;6.00;99.90;;;6.27;90.01;102465.94;5034852;28;20049;-70
2023/03/03 06:43:22;;;;;;;27.10;19.08;;;6.10;99.90;;;6.29;90.04;102467.78;5034310;28;20061;-70
2023/03/03 06:45:50;;;;;;;29.55;18.88;;;6.10;99.90;;;6.33;90.36;102472.31;5033476;28;20403;-70
2023/03/03 06:48:19;;;;;;;28.27;20.30;;;6.20;99.90;;;6.40;90.29;102470.81;5034676;28;20144;-70
2023/03/03 06:50:47;;;;;;;28.42;19.08;;;6.20;99.90;;;6.40;90.18;102476.09;5034930;28;20041;-70
2023/03/03 06:53:17;;;;;;;29.00;20.02;;;6.20;99.90;;;6.45;90.11;102476.22;5034951;28;20037;-70
2023/03/03 06:55:46;;;;;;;31.55;21.08;;;6.30;99.90;;;6.45;90.05;102484.13;5034319;28;20076;-70
2023/03/03 06:58:18;;;;;;;31.17;20.95;;;6.30;99.90;;;6.36;89.96;102485.59;5034178;28;20072;-71
2023/03/03 07:00:54;;;;;;;31.27;21.17;;;6.30;99.90;;;6.33;90.50;102490.72;5034228;28;20103;-70
2023/03/03 07:03:26;;;;;;;32.17;21.13;;;6.20;99.90;;;6.27;90.58;102477.31;5034078;28;20124;-70
2023/03/03 07:05:54;;;;;;;28.02;20.40;;;6.20;99.90;;;6.24;91.13;102490.34;5034463;28;20044;-70
2023/03/03 07:08:24;;;;;;;30.08;20.67;;;6.10;99.90;;;6.36;90.82;102485.59;5034315;28;20033;-70
2023/03/03 07:10:54;;;;;;;28.60;20.13;;;6.20;99.90;;;6.38;90.83;102486.53;5032986;28;20096;-70
2023/03/03 07:13:26;;;;;;;26.55;19.38;;;6.20;99.90;;;6.39;90.97;102492.66;5033899;28;20049;-70
2023/03/03 07:15:57;;;;;;;28.30;20.60;;;6.20;99.90;;;6.43;90.83;102497.22;5033913;28;20068;-70
2023/03/03 07:18:40;;;;;;;26.95;20.10;;;6.30;99.90;;;6.38;90.94;102528.59;5032216;28;20551;-70
2023/03/03 07:21:20;;;;;;;28.40;18.87;;;6.20;99.90;;;6.43;91.08;102501.59;5033869;28;20457;-70
2023/03/03 07:23:51;;;;;;;26.55;19.08;;;6.30;99.90;;;6.45;91.00;102499.88;5033840;28;20095;-70
2023/03/03 07:26:22;;;;;;;27.58;20.05;;;6.30;99.90;;;6.34;91.13;102487.25;5033803;28;20550;-70
2023/03/03 07:28:59;;;;;;;25.58;19.48;;;6.20;99.90;;;6.36;91.06;102521.47;5033746;28;20080;-70
2023/03/03 07:31:35;;;;;;;24.33;18.13;;;6.20;99.90;;;6.38;91.21;102493.53;5033680;28;20065;-70
2023/03/03 07:34:19;;;;;;;25.40;17.85;;;6.20;99.90;;;6.52;91.01;102509.81;5033626;28;20496;-70
2023/03/03 07:36:50;;;;;;;26.65;18.95;;;6.30;99.90;;;6.57;91.10;102508.25;5033484;28;20046;-70
2023/03/03 07:39:30;;;;;;;25.40;18.73;;;6.40;99.90;;;6.53;90.79;102508.97;5032500;28;20084;-69
2023/03/03 07:42:22;;;;;;;26.33;18.70;;;6.40;99.90;;;6.44;90.91;102509.53;5032508;28;20049;-70
2023/03/03 07:45:26;;;;;;;24.73;18.43;;;6.40;99.90;;;6.45;91.40;102506.03;5032126;28;20057;-70
2023/03/03 07:48:02;;;;;;;27.63;18.77;;;6.40;99.90;;;6.49;91.26;102517.56;5032177;28;20393;-70
2023/03/03 07:50:31;;;;;;;25.38;19.10;;;6.30;99.90;;;6.57;91.12;102511.78;5033580;28;20047;-70
2023/03/03 07:53:00;;;;;;;26.75;19.08;;;6.40;99.90;;;6.65;91.14;102525.22;5032203;28;20049;-71
2023/03/03 07:55:34;;;;;;;24.93;19.90;;;6.50;99.90;;;6.53;90.96;102499.34;5033179;28;20038;-67
2023/03/03 07:58:22;;;;;;;26.98;19.33;;;6.50;99.90;;;6.71;90.79;102531.63;5032029;28;20092;-68
2023/03/03 08:01:31;;;;;;;26.85;19.75;;;6.50;99.90;;;6.76;90.71;102537.03;5033595;28;20057;-69
2023/03/03 08:04:00;;;;;;;28.65;20.30;;;6.60;99.90;;;6.82;90.84;102539.88;5033023;28;20116;-67
2023/03/03 08:06:51;;;;;;;28.40;19.60;;;6.60;99.90;;;6.84;90.59;102536.47;5032202;28;20046;-68
2023/03/03 08:09:46;;;;;;;25.65;18.80;;;6.70;99.90;;;6.55;90.41;102496.78;5033260;28;20057;-68
2023/03/03 08:12:34;;;;;;;26.60;19.63;;;6.70;99.90;;;6.90;90.23;102546.34;5031815;28;20140;-67
2023/03/03 08:15:23;;;;;;;27.17;19.17;;;6.70;99.90;;;6.76;90.28;102518.63;5026468;28;20567;-69
2023/03/03 08:17:55;;;;;;;26.65;17.80;;;6.80;99.90;;;6.92;90.42;102548.19;5031804;28;20057;-68
2023/03/03 08:20:47;;;;;;;30.48;20.48;;;6.70;99.90;;;6.66;90.13;102537.53;5033168;28;20042;-68
2023/03/03 08:23:18;;;;;;;28.08;19.88;;;6.60;99.90;;;6.84;91.03;102554.91;5028824;28;20485;-68
2023/03/03 08:25:49;;;;;;;27.10;19.33;;;6.70;99.90;;;6.96;90.84;102563.25;5033041;28;20041;-68
2023/03/03 08:28:17;;;;;;;27.10;18.63;;;6.70;99.90;;;6.98;90.69;102566.84;5032972;28;20868;-68
2023/03/03 08:30:46;;;;;;;25.60;18.98;;;6.80;99.90;;;7.07;90.66;102568.91;5030470;28;20041;-69
2023/03/03 08:33:17;;;;;;;28.90;18.58;;;6.80;99.90;;;7.07;90.71;102574.16;5032537;28;20063;-69
2023/03/03 08:35:46;;;;;;;24.75;18.17;;;6.90;99.90;;;7.00;90.82;102590.56;5031429;28;20107;-70
2023/03/03 08:38:18;;;;;;;27.95;17.25;;;6.90;99.90;;;7.04;90.58;102574.06;5032843;28;20091;-69
2023/03/03 08:40:48;;;;;;;24.55;17.45;;;6.90;99.90;;;7.10;90.51;102575.16;5032808;28;20107;-70
2023/03/03 08:43:20;;;;;;;24.83;17.33;;;6.90;99.90;;;7.11;90.36;102570.81;5032722;28;20488;-69
2023/03/03 08:45:52;;;;;;;27.75;17.70;;;7.00;99.90;;;7.10;90.23;102585.69;5031538;28;20080;-70
2023/03/03 08:48:22;;;;;;;22.65;16.05;;;6.90;99.90;;;7.10;90.57;102575.16;5031728;28;20091;-69
2023/03/03 08:50:52;;;;;;;28.65;17.20;;;6.90;99.90;;;7.16;90.61;102579.78;5033024;28;20041;-67
2023/03/03 08:53:21;;;;;;;22.80;17.13;;;7.00;99.90;;;7.25;90.66;102588.00;5032947;28;20107;-71
2023/03/03 08:55:50;;;;;;;22.73;16.52;;;7.10;99.90;;;7.21;90.13;102584.38;5031358;28;20061;-71
2023/03/03 08:58:21;;;;;;;22.83;17.35;;;7.10;99.90;;;7.30;90.18;102595.22;5031355;28;20473;-71
2023/03/03 09:01:02;;;;;;;23.45;17.63;;;7.10;99.90;;;7.30;89.62;102594.31;5031522;28;20053;-71
2023/03/03 09:03:32;;;;;;;29.95;19.00;;;7.10;99.90;;;7.33;89.50;102591.81;5031459;28;20194;-71
2023/03/03 09:06:00;;;;;;;24.25;18.17;;;7.10;99.90;;;7.35;89.35;102592.75;5032279;28;20045;-70
2023/03/03 09:08:28;;;;;;;25.95;17.25;;;7.10;99.90;;;7.39;89.38;102588.50;5031813;28;20037;-70
2023/03/03 09:10:57;;;;;;;25.73;18.98;;;7.20;99.90;;;7.47;89.37;102585.28;5031827;28;20045;-71
2023/03/03 09:13:26;;;;;;;23.08;17.25;;;7.30;99.90;;;7.39;89.45;102585.88;5032253;28;20563;-71
2023/03/03 09:15:54;;;;;;;24.13;17.13;;;7.30;99.90;;;7.66;89.41;102590.38;5031142;28;20079;-71
2023/03/03 09:18:35;;;;;;;20.98;16.88;;;7.40;99.90;;;7.68;89.32;102586.06;5032099;28;20051;-72
2023/03/03 09:21:17;;;;;;;;;;;7.60;99.90;;;7.65;89.53;102585.03;5033184;28;20077;-70
2023/03/03 09:23:54;;;;;;;22.33;14.35;;;7.50;99.90;;;7.45;89.16;102592.25;5032176;28;20012;-66
2023/03/03 09:26:28;;;;;;;21.13;16.45;;;7.40;99.90;;;8.04;90.13;102594.31;5031074;28;20095;-69
2023/03/03 09:29:10;;;;;;;21.70;17.20;;;7.70;99.90;;;8.28;89.11;102576.72;5032143;28;20041;-67
2023/03/03 09:31:42;;;;;;;24.08;15.52;;;8.00;99.90;;;8.61;87.97;102584.78;5032641;28;20041;-66
2023/03/03 09:34:24;;;;;;;20.42;15.05;;;8.40;99.90;;;8.81;86.68;102584.53;5032008;28;20116;-67
2023/03/03 09:36:54;;;;;;;18.00;14.40;;;8.60;99.90;;;8.97;85.69;102560.41;5031992;28;20046;-71
2023/03/03 09:39:25;;;;;;;16.95;13.25;;;8.90;99.90;;;9.15;83.70;102589.06;5032476;28;20041;-71
2023/03/03 09:42:21;;;;;;;18.67;12.90;;;9.10;99.90;;;9.15;84.10;102589.06;5033997;28;20121;-72
2023/03/03 09:45:26;;;;;;;18.40;12.95;;;8.90;99.90;;;9.74;82.96;102596.00;5036049;28;20057;-66
2023/03/03 09:48:18;;;;;;;14.32;11.45;;;9.40;99.90;;;10.15;80.83;102592.72;4994161;28;20082;-66
2023/03/03 09:51:05;;;;;;;15.77;11.35;;;9.80;99.90;;;10.54;78.50;102595.44;5035101;28;20467;-69
2023/03/03 09:53:54;;;;;;;13.68;11.10;;;10.30;99.90;;;10.36;77.99;102595.88;5035328;28;20454;-73
2023/03/03 09:56:30;;;;;;;17.00;10.32;;;10.20;99.90;;;10.63;77.25;102592.97;5035215;28;20041;-72
2023/03/03 09:59:16;;;;;;;14.13;9.93;;;10.50;99.90;;;10.16;75.81;102601.56;5035122;28;20045;-65
2023/03/03 10:02:04;;;;;;;16.52;9.98;;;10.20;99.90;;;10.62;76.30;102599.16;5035482;28;20072;-66
2023/03/03 10:04:56;;;;;;;12.90;8.48;;;10.30;99.90;;;11.13;74.96;102597.63;5033738;28;20466;-65
2023/03/03 10:07:40;;;;;;;10.27;8.85;;;10.80;99.90;;;11.36;72.79;102604.28;5034981;28;20051;-65
2023/03/03 10:10:25;;;;;;;12.18;8.25;;;11.10;99.90;;;11.78;71.24;102599.88;5034078;28;20049;-64
2023/03/03 10:13:07;;;;;;;12.75;7.82;;;11.50;99.90;;;12.05;69.70;102593.25;5050773;28;20053;-64
2023/03/03 10:15:49;;;;;;;12.40;7.50;;;11.90;99.90;;;12.28;67.57;102594.53;5035071;28;20128;-65
2023/03/03 10:18:31;;;;;;;10.65;8.00;;;12.10;99.90;;;12.57;67.00;102602.09;5033827;28;20460;-64
2023/03/03 10:21:10;;;;;;;10.32;6.88;;;12.30;99.90;;;12.53;65.04;102602.03;5035553;28;20045;-64
2023/03/03 10:23:56;;;;;;;10.80;7.22;;;12.50;99.90;;;12.42;67.42;102600.97;5035080;28;20403;-64
2023/03/03 10:26:51;;;;;;;8.32;6.68;;;12.20;99.90;;;12.18;66.66;102595.25;5033765;28;20053;-64
2023/03/03 10:29:52;;;;;;;8.98;7.63;;;12.20;99.90;;;11.47;67.58;102597.47;5034643;28;20033;-62
2023/03/03 10:32:41;;;;;;;9.00;7.22;;;11.40;99.90;;;11.76;66.03;102598.97;5034609;28;20045;-63
2023/03/03 10:35:47;;;;;;;8.70;6.70;;;11.70;99.90;;;10.55;69.94;102591.94;5035289;28;20076;-64
2023/03/03 10:38:46;;;;;;;7.97;6.80;;;10.50;99.90;;;9.41;71.59;102600.34;5033387;28;20107;-66